createdAt,value
2018-05-02T14:16:33.790Z,17.60
2018-05-02T14:17:34.951Z,17.60
2018-05-02T14:18:36.075Z,17.50
2018-05-02T14:19:37.118Z,17.80
2018-05-02T14:20:38.205Z,17.80
2018-05-02T14:21:39.271Z,18.00
2018-05-02T14:22:41.077Z,18.20
2018-05-02T14:23:42.151Z,18.30
2018-05-02T14:24:44.165Z,18.50
2018-05-02T14:25:45.082Z,18.40
2018-05-02T14:26:46.220Z,18.60
2018-05-02T14:27:47.505Z,18.70
2018-05-02T14:28:48.634Z,18.70
2018-05-02T14:29:50.607Z,18.80
2018-05-02T14:30:52.954Z,18.80
2018-05-02T14:31:54.836Z,18.90
2018-05-02T14:32:56.087Z,19.00
2018-05-02T14:33:57.166Z,18.90
2018-05-02T14:34:59.651Z,19.20
2018-05-02T14:36:02.045Z,19.40
2018-05-02T14:37:03.572Z,19.30
2018-05-02T14:38:04.902Z,19.50
2018-05-02T14:39:07.832Z,19.60
2018-05-02T14:40:09.136Z,19.70
2018-05-02T14:41:10.244Z,19.80
2018-05-02T14:42:11.408Z,19.90
2018-05-02T14:43:12.748Z,20.00
2018-05-02T14:44:13.993Z,20.00
2018-05-02T14:45:15.135Z,20.10
2018-05-02T14:46:16.211Z,20.10
2018-05-02T14:47:17.310Z,20.20
2018-05-02T14:48:18.660Z,20.20
2018-05-02T14:49:20.800Z,20.30
2018-05-02T14:50:22.644Z,20.20
2018-05-02T14:51:23.727Z,20.20
2018-05-02T14:52:24.776Z,20.20
2018-05-02T14:53:25.850Z,20.20
2018-05-02T14:54:26.913Z,20.20
2018-05-02T14:55:28.712Z,20.30
2018-05-02T14:56:29.770Z,20.40
2018-05-02T14:57:30.851Z,20.30
2018-05-02T14:58:32.659Z,20.30
2018-05-02T14:59:33.719Z,20.30
2018-05-02T15:01:42.543Z,20.30
2018-05-02T15:02:44.355Z,20.30
2018-05-02T15:03:46.202Z,20.30
2018-05-02T15:04:47.451Z,20.20
2018-05-02T15:05:48.827Z,20.30
2018-05-02T15:06:49.936Z,20.30
2018-05-02T15:07:51.044Z,20.30
2018-05-02T15:08:52.117Z,20.30
2018-05-02T15:09:53.207Z,20.30
2018-05-02T15:10:54.255Z,20.30
2018-05-02T15:11:56.059Z,20.30
2018-05-02T15:12:57.122Z,20.20
2018-05-02T15:13:58.177Z,20.20
2018-05-02T15:14:59.987Z,20.30
2018-05-02T15:16:01.050Z,20.30
2018-05-02T15:17:02.846Z,20.30
2018-05-02T15:18:03.917Z,20.30
2018-05-02T15:19:05.013Z,20.40
2018-05-02T15:20:06.101Z,20.50
2018-05-02T15:21:07.162Z,20.40
2018-05-02T15:22:08.243Z,20.50
2018-05-02T15:23:09.307Z,20.50
2018-05-02T15:24:10.382Z,20.40
2018-05-02T15:25:11.525Z,20.40
2018-05-02T15:26:12.940Z,20.40
2018-05-02T15:27:14.055Z,20.30
2018-05-02T15:28:15.133Z,20.20
2018-05-02T15:29:16.806Z,20.20
2018-05-02T15:30:19.540Z,20.10
2018-05-02T15:31:20.723Z,20.10
2018-05-02T15:32:21.795Z,20.00
2018-05-02T15:33:22.863Z,20.00
2018-05-02T15:34:23.923Z,20.00
2018-05-02T15:35:24.979Z,20.00
2018-05-02T15:36:26.056Z,19.90
2018-05-02T15:37:27.876Z,19.90
2018-05-02T15:38:28.950Z,19.80
2018-05-02T15:39:29.999Z,19.80
2018-05-02T15:40:31.821Z,19.80
2018-05-02T15:41:32.899Z,19.80
2018-05-02T15:42:33.966Z,19.80
2018-05-02T15:43:35.030Z,19.80
2018-05-02T15:44:36.091Z,19.90
2018-05-02T15:45:37.282Z,19.80
2018-05-02T15:46:38.503Z,19.70
2018-05-02T15:47:39.574Z,19.70
2018-05-02T15:48:41.387Z,19.70
2018-05-02T15:49:42.453Z,19.60
2018-05-02T15:50:43.511Z,19.70
2018-05-02T15:51:45.094Z,19.70
2018-05-02T15:52:46.362Z,19.60
2018-05-02T15:53:47.461Z,19.60
2018-05-02T15:54:48.574Z,19.60
2018-05-02T15:55:49.678Z,19.60
2018-05-02T15:56:50.936Z,19.50
2018-05-02T15:59:01.981Z,19.50
2018-05-02T16:00:03.452Z,19.50
2018-05-02T16:01:05.480Z,19.40
2018-05-02T16:02:06.851Z,19.40
2018-05-02T16:03:10.330Z,19.40
2018-05-02T16:04:12.900Z,19.30
2018-05-02T16:05:14.149Z,19.30
2018-05-02T16:06:15.227Z,19.30
2018-05-02T16:07:16.314Z,19.30
2018-05-02T16:08:17.359Z,19.30
2018-05-02T16:09:18.489Z,19.20
2018-05-02T16:10:19.551Z,19.20
2018-05-02T16:11:20.647Z,19.20
2018-05-02T16:12:21.702Z,19.20
2018-05-02T16:13:22.804Z,19.20
2018-05-02T16:14:23.872Z,19.10
2018-05-02T16:15:24.935Z,19.10
2018-05-02T16:16:26.299Z,19.10
2018-05-02T16:17:27.569Z,19.10
2018-05-02T16:18:28.730Z,19.10
2018-05-02T16:19:31.587Z,19.10
2018-05-02T16:20:32.662Z,19.00
2018-05-02T16:21:33.762Z,19.10
2018-05-02T16:22:34.823Z,19.10
2018-05-02T16:23:35.907Z,19.00
2018-05-02T16:24:36.967Z,19.10
2018-05-02T16:25:38.038Z,19.10
2018-05-02T16:26:39.113Z,19.10
2018-05-02T16:27:40.261Z,19.10
2018-05-02T16:28:41.247Z,19.10
2018-05-02T16:29:42.323Z,19.10
2018-05-02T16:30:43.400Z,19.10
2018-05-02T16:31:44.466Z,19.10
2018-05-02T16:32:45.520Z,19.10
2018-05-02T16:33:46.846Z,19.10
2018-05-02T16:34:48.264Z,19.10
2018-05-02T16:36:51.946Z,19.10
2018-05-02T16:37:53.010Z,19.20
2018-05-02T16:38:54.102Z,19.10
2018-05-02T16:39:55.150Z,19.20
2018-05-02T16:40:56.219Z,19.20
2018-05-02T16:41:58.031Z,19.20
2018-05-02T16:42:59.080Z,19.20
2018-05-02T16:44:00.948Z,19.20
2018-05-02T16:45:02.121Z,19.20
2018-05-02T16:46:03.355Z,19.20
2018-05-02T16:47:04.640Z,19.20
2018-05-02T16:48:05.773Z,19.20
2018-05-02T16:49:07.672Z,19.20
2018-05-02T16:50:08.844Z,19.20
2018-05-02T16:51:09.965Z,19.20
2018-05-02T16:52:11.265Z,19.20
2018-05-02T16:53:12.400Z,19.20
2018-05-02T16:54:13.773Z,19.20
2018-05-02T16:55:15.018Z,19.20
2018-05-02T16:56:16.919Z,19.20
2018-05-02T16:57:18.109Z,19.20
2018-05-02T16:58:19.587Z,19.20
2018-05-02T16:59:20.770Z,19.20
2018-05-02T17:00:22.293Z,19.20
2018-05-02T17:01:23.417Z,19.20
2018-05-02T17:02:24.902Z,19.20
2018-05-02T17:03:26.003Z,19.10
2018-05-02T17:04:27.219Z,19.10
2018-05-02T17:05:28.390Z,19.20
2018-05-02T17:06:29.769Z,19.20
2018-05-02T17:07:31.954Z,19.20
2018-05-02T17:08:33.287Z,19.10
2018-05-02T17:09:34.383Z,19.10
2018-05-02T17:10:35.507Z,19.10
2018-05-02T17:11:36.693Z,19.10
2018-05-02T17:12:37.863Z,19.10
2018-05-02T17:13:39.207Z,19.10
2018-05-02T17:14:40.300Z,19.10
2018-05-02T17:15:41.406Z,19.00
2018-05-02T17:16:43.236Z,19.00
2018-05-02T17:17:44.454Z,19.00
2018-05-02T17:18:45.612Z,19.00
2018-05-02T17:19:47.006Z,19.00
2018-05-02T17:20:48.120Z,18.90
2018-05-02T17:21:49.320Z,18.90
2018-05-02T17:22:50.512Z,19.00
2018-05-02T17:23:51.628Z,19.00
2018-05-02T17:24:52.714Z,19.00
2018-05-02T17:25:53.941Z,19.00
2018-05-02T17:26:55.136Z,19.00
2018-05-02T17:27:56.460Z,18.90
2018-05-02T17:28:57.826Z,18.90
2018-05-02T17:29:59.324Z,19.00
2018-05-02T17:31:00.480Z,19.00
2018-05-02T17:32:01.610Z,19.00
2018-05-02T17:33:09.573Z,19.00
2018-05-02T17:34:10.679Z,18.90
2018-05-02T17:36:19.880Z,18.90
2018-05-02T17:37:21.169Z,19.00
2018-05-02T17:38:22.292Z,18.80
2018-05-02T17:39:23.529Z,18.90
2018-05-02T17:40:24.644Z,18.90
2018-05-02T17:41:25.833Z,18.90
2018-05-02T17:42:27.745Z,18.90
2018-05-02T17:43:29.067Z,18.90
2018-05-02T17:44:30.206Z,18.90
2018-05-02T17:45:31.393Z,18.80
2018-05-02T17:46:32.578Z,18.80
2018-05-02T17:47:33.556Z,18.80
2018-05-02T17:48:35.404Z,18.70
2018-05-02T17:49:36.478Z,18.70
2018-05-02T17:50:37.585Z,18.80
2018-05-02T17:51:38.699Z,18.60
2018-05-02T17:52:39.794Z,18.70
2018-05-02T17:53:40.810Z,18.80
2018-05-02T17:54:41.889Z,18.60
2018-05-02T17:55:43.016Z,18.60
2018-05-02T17:57:56.843Z,18.60
2018-05-02T17:58:57.930Z,18.60
2018-05-02T18:00:01.348Z,18.60
2018-05-02T18:01:03.148Z,18.60
2018-05-02T18:02:04.234Z,18.60
2018-05-02T18:03:05.303Z,18.70
2018-05-02T18:04:06.389Z,18.60
2018-05-02T18:05:07.466Z,18.50
2018-05-02T18:06:09.260Z,18.50
2018-05-02T18:07:10.319Z,18.50
2018-05-02T18:08:11.418Z,18.50
2018-05-02T18:09:12.503Z,18.50
2018-05-02T18:10:13.569Z,18.60
2018-05-02T18:11:14.732Z,18.60
2018-05-02T18:12:15.814Z,18.50
2018-05-02T18:13:16.894Z,18.50
2018-05-02T18:14:17.963Z,18.50
2018-05-02T18:15:19.036Z,18.50
2018-05-02T18:16:20.127Z,18.50
2018-05-02T18:17:21.183Z,18.50
2018-05-02T18:18:22.255Z,18.60
2018-05-02T18:19:23.334Z,18.50
2018-05-02T18:20:26.116Z,18.50
2018-05-02T18:21:27.910Z,18.50
2018-05-02T18:22:28.987Z,18.40
2018-05-02T18:23:30.059Z,18.40
2018-05-02T18:24:31.159Z,18.50
2018-05-02T18:25:32.237Z,18.40
2018-05-02T18:26:33.307Z,18.40
2018-05-02T18:27:35.156Z,18.40
2018-05-02T18:28:36.969Z,18.40
2018-05-02T18:29:38.600Z,18.40
2018-05-02T18:30:39.671Z,18.40
2018-05-02T18:31:40.785Z,18.40
2018-05-02T18:32:41.862Z,18.40
2018-05-02T18:33:42.921Z,18.30
2018-05-02T18:34:44.012Z,18.30
2018-05-02T18:35:45.847Z,18.30
2018-05-02T18:36:46.915Z,18.20
2018-05-02T18:37:47.989Z,18.30
2018-05-02T18:38:49.034Z,18.30
2018-05-02T18:39:50.104Z,18.30
2018-05-02T18:40:51.219Z,18.20
2018-05-02T18:41:52.328Z,18.40
2018-05-02T18:42:53.408Z,18.40
2018-05-02T18:43:54.471Z,18.20
2018-05-02T18:44:55.679Z,18.20
2018-05-02T18:45:56.942Z,18.20
2018-05-02T18:46:58.039Z,18.20
2018-05-02T18:47:59.091Z,18.20
2018-05-02T18:49:00.199Z,18.10
2018-05-02T18:50:02.012Z,18.10
2018-05-02T18:51:03.086Z,18.10
2018-05-02T18:52:04.181Z,18.20
2018-05-02T18:53:05.754Z,18.10
2018-05-02T18:54:07.772Z,18.00
2018-05-02T18:55:08.863Z,18.00
2018-05-02T18:56:09.945Z,18.00
2018-05-02T18:57:11.075Z,18.00
2018-05-02T18:58:12.146Z,17.90
2018-05-02T18:59:13.247Z,18.00
2018-05-02T19:00:14.310Z,18.10
2018-05-02T19:01:15.374Z,17.90
2018-05-02T19:02:16.499Z,18.00
2018-05-02T19:03:17.593Z,17.90
2018-05-02T19:04:19.437Z,17.80
2018-05-02T19:05:20.525Z,17.80
2018-05-02T19:06:21.637Z,17.90
2018-05-02T19:07:22.710Z,17.80
2018-05-02T19:08:23.784Z,17.80
2018-05-02T19:09:25.591Z,17.80
2018-05-02T19:10:26.679Z,17.80
2018-05-02T19:11:28.491Z,17.80
2018-05-02T19:12:30.308Z,17.80
2018-05-02T19:13:31.427Z,17.80
2018-05-02T19:14:32.494Z,17.70
2018-05-02T19:15:33.579Z,17.70
2018-05-02T19:16:34.680Z,17.60
2018-05-02T19:17:35.775Z,17.60
2018-05-02T19:18:43.035Z,17.60
2018-05-02T19:21:18.771Z,17.60
2018-05-02T19:22:19.969Z,17.60
2018-05-02T19:23:21.041Z,17.60
2018-05-02T19:24:22.129Z,17.50
2018-05-02T19:25:29.226Z,17.50
2018-05-02T19:26:36.270Z,17.50
2018-05-02T19:27:37.370Z,17.50
2018-05-02T19:28:39.198Z,17.40
2018-05-02T19:29:40.407Z,17.40
2018-05-02T19:30:42.242Z,17.40
2018-05-02T19:31:49.554Z,17.40
2018-05-02T19:32:56.698Z,17.40
2018-05-02T19:33:57.783Z,17.40
2018-05-02T19:34:58.828Z,17.40
2018-05-02T19:36:00.007Z,17.40
2018-05-02T19:37:01.119Z,17.40
2018-05-02T19:38:02.236Z,17.30
2018-05-02T19:39:06.046Z,17.30
2018-05-02T19:40:13.157Z,17.30
2018-05-02T19:41:20.212Z,17.30
2018-05-02T19:42:27.492Z,17.30
2018-05-02T19:43:34.614Z,17.30
2018-05-02T19:44:35.664Z,17.30
2018-05-02T19:45:36.756Z,17.30
2018-05-02T19:46:37.852Z,17.20
2018-05-02T19:47:38.962Z,17.30
2018-05-02T19:48:40.019Z,17.20
2018-05-02T19:49:41.092Z,17.20
2018-05-02T19:50:50.106Z,17.10
2018-05-02T19:51:57.216Z,17.10
2018-05-02T19:52:58.282Z,17.10
2018-05-02T19:53:59.354Z,17.10
2018-05-02T19:55:00.431Z,17.10
2018-05-02T19:56:01.503Z,17.10
2018-05-02T19:57:02.633Z,17.10
2018-05-02T19:58:03.647Z,17.00
2018-05-02T19:59:06.025Z,17.10
2018-05-02T20:00:07.111Z,17.10
2018-05-02T20:01:14.388Z,17.10
2018-05-02T20:02:21.492Z,17.10
2018-05-02T20:03:23.285Z,17.00
2018-05-02T20:04:24.376Z,17.00
2018-05-02T20:05:25.456Z,17.00
2018-05-02T20:06:26.544Z,17.00
2018-05-02T20:07:34.288Z,16.90
2018-05-02T20:08:41.311Z,16.90
2018-05-02T20:09:48.603Z,16.90
2018-05-02T20:10:55.695Z,17.00
2018-05-02T20:12:02.731Z,16.90
2018-05-02T20:13:10.033Z,17.10
2018-05-02T20:14:11.745Z,17.00
2018-05-02T20:15:13.560Z,16.90
2018-05-02T20:16:14.637Z,16.90
2018-05-02T20:17:15.728Z,16.90
2018-05-02T20:18:16.811Z,17.00
2018-05-02T20:19:17.895Z,17.00
2018-05-02T20:20:18.967Z,17.00
2018-05-02T20:21:20.079Z,17.00
2018-05-02T20:22:21.197Z,17.00
2018-05-02T20:23:22.262Z,17.00
2018-05-02T20:24:23.335Z,17.10
2018-05-02T20:25:24.420Z,17.00
2018-05-02T20:26:25.527Z,17.20
2018-05-02T20:27:26.600Z,17.00
2018-05-02T20:28:27.708Z,17.10
2018-05-02T20:29:28.809Z,17.00
2018-05-02T20:30:29.876Z,17.00
2018-05-02T20:31:31.691Z,17.00
2018-05-02T20:32:32.776Z,17.00
2018-05-02T20:33:33.858Z,17.00
2018-05-02T20:34:34.951Z,17.00
2018-05-02T20:35:36.963Z,17.00
2018-05-02T20:36:38.107Z,17.00
2018-05-02T20:37:39.864Z,17.10
2018-05-02T20:38:41.693Z,17.00
2018-05-02T20:39:43.539Z,16.90
2018-05-02T20:40:44.609Z,16.90
2018-05-02T20:41:45.678Z,16.90
2018-05-02T20:42:46.811Z,17.00
2018-05-02T20:43:47.886Z,16.90
2018-05-02T20:44:48.971Z,16.90
2018-05-02T20:45:50.048Z,16.90
2018-05-02T20:46:51.871Z,16.90
2018-05-02T20:47:52.976Z,16.90
2018-05-02T20:48:54.067Z,16.90
2018-05-02T20:49:55.143Z,16.90
2018-05-02T20:51:01.291Z,17.00
2018-05-02T20:52:12.397Z,16.90
2018-05-02T20:53:13.491Z,16.90
2018-05-02T20:54:15.322Z,16.90
2018-05-02T20:55:16.439Z,16.90
2018-05-02T20:56:17.479Z,16.90
2018-05-02T20:57:20.027Z,16.80
2018-05-02T20:58:21.847Z,16.80
2018-05-02T20:59:22.919Z,16.80
2018-05-02T21:00:23.980Z,16.80
2018-05-02T21:01:25.063Z,16.80
2018-05-02T21:02:27.039Z,16.80
2018-05-02T21:03:28.131Z,16.80
2018-05-02T21:04:30.593Z,16.80
2018-05-02T21:05:31.679Z,16.90
2018-05-02T21:06:34.955Z,16.80
2018-05-02T21:07:36.151Z,16.80
2018-05-02T21:08:37.987Z,16.80
2018-05-02T21:09:39.059Z,16.80
2018-05-02T21:10:40.184Z,16.90
2018-05-02T21:11:42.012Z,16.90
2018-05-02T21:12:43.074Z,16.80
2018-05-02T21:13:44.902Z,16.90
2018-05-02T21:14:45.967Z,16.80
2018-05-02T21:15:47.786Z,16.90
2018-05-02T21:16:48.867Z,16.90
2018-05-02T21:17:49.941Z,16.90
2018-05-02T21:18:51.015Z,16.90
2018-05-02T21:19:52.293Z,16.80
2018-05-02T21:20:53.496Z,16.80
2018-05-02T21:21:54.607Z,16.70
2018-05-02T21:22:56.166Z,16.80
2018-05-02T21:23:57.947Z,16.80
2018-05-02T21:24:59.022Z,16.80
2018-05-02T21:26:00.083Z,16.80
2018-05-02T21:27:01.115Z,16.80
2018-05-02T21:28:02.234Z,16.70
2018-05-02T21:29:03.328Z,16.70
2018-05-02T21:30:04.386Z,16.70
2018-05-02T21:31:05.520Z,16.60
2018-05-02T21:32:06.520Z,16.60
2018-05-02T21:33:07.593Z,16.60
2018-05-02T21:34:09.414Z,16.50
2018-05-02T21:35:10.507Z,16.50
2018-05-02T21:36:11.587Z,16.50
2018-05-02T21:37:12.642Z,16.50
2018-05-02T21:38:13.734Z,16.60
2018-05-02T21:39:14.808Z,16.40
2018-05-02T21:40:15.908Z,16.60
2018-05-02T21:41:16.981Z,16.50
2018-05-02T21:42:18.039Z,16.50
2018-05-02T21:43:19.111Z,16.60
2018-05-02T21:44:20.174Z,16.50
2018-05-02T21:45:21.218Z,16.50
2018-05-02T21:46:22.303Z,16.50
2018-05-02T21:47:23.368Z,16.50
2018-05-02T21:48:24.438Z,16.50
2018-05-02T21:49:25.494Z,16.50
2018-05-02T21:50:26.554Z,16.50
2018-05-02T21:51:28.349Z,16.50
2018-05-02T21:52:29.406Z,16.50
2018-05-02T21:53:30.485Z,16.50
2018-05-02T21:54:31.560Z,16.50
2018-05-02T21:55:32.622Z,16.50
2018-05-02T21:56:34.427Z,16.50
2018-05-02T21:57:35.486Z,16.50
2018-05-02T21:58:36.609Z,16.50
2018-05-02T21:59:38.440Z,16.50
2018-05-02T22:00:39.501Z,16.40
2018-05-02T22:01:40.583Z,16.50
2018-05-02T22:02:41.662Z,16.50
2018-05-02T22:03:43.474Z,16.40
2018-05-02T22:04:44.534Z,16.40
2018-05-02T22:05:45.596Z,16.40
2018-05-02T22:06:47.423Z,16.40
2018-05-02T22:07:48.491Z,16.40
2018-05-02T22:08:49.552Z,16.40
2018-05-02T22:09:50.707Z,16.30
2018-05-02T22:10:51.770Z,16.30
2018-05-02T22:11:52.845Z,16.30
2018-05-02T22:12:53.906Z,16.30
2018-05-02T22:13:54.978Z,16.30
2018-05-02T22:14:56.797Z,16.30
2018-05-02T22:15:57.859Z,16.30
2018-05-02T22:16:58.918Z,16.30
2018-05-02T22:17:59.971Z,16.30
2018-05-02T22:19:01.060Z,16.40
2018-05-02T22:20:02.143Z,16.30
2018-05-02T22:21:03.214Z,16.30
2018-05-02T22:22:04.284Z,16.30
2018-05-02T22:23:05.339Z,16.30
2018-05-02T22:24:06.441Z,16.20
2018-05-02T22:25:07.509Z,16.30
2018-05-02T22:26:08.582Z,16.30
2018-05-02T22:27:09.683Z,16.40
2018-05-02T22:28:10.738Z,16.30
2018-05-02T22:29:12.543Z,16.30
2018-05-02T22:30:13.615Z,16.30
2018-05-02T22:31:14.684Z,16.30
2018-05-02T22:32:15.776Z,16.40
2018-05-02T22:33:17.577Z,16.40
2018-05-02T22:34:18.627Z,16.40
2018-05-02T22:35:19.699Z,16.40
2018-05-02T22:36:21.489Z,16.40
2018-05-02T22:37:22.569Z,16.40
2018-05-02T22:38:23.623Z,16.40
2018-05-02T22:39:24.678Z,16.40
2018-05-02T22:40:25.729Z,16.40
2018-05-02T22:41:26.815Z,16.40
2018-05-02T22:42:31.757Z,16.40
2018-05-02T22:43:33.589Z,16.40
2018-05-02T22:44:35.732Z,16.50
2018-05-02T22:45:37.531Z,16.50
2018-05-02T22:46:38.580Z,16.40
2018-05-02T22:47:39.658Z,16.50
2018-05-02T22:48:40.793Z,16.30
2018-05-02T22:49:41.791Z,16.40
2018-05-02T22:50:42.839Z,16.40
2018-05-02T22:51:43.907Z,16.30
2018-05-02T22:52:48.539Z,16.30
2018-05-02T22:53:49.801Z,16.30
2018-05-02T22:54:51.838Z,16.30
2018-05-02T22:55:55.657Z,16.20
2018-05-02T22:56:58.973Z,16.20
2018-05-02T22:58:00.103Z,16.20
2018-05-02T22:59:01.173Z,16.20
2018-05-02T23:00:03.132Z,16.20
2018-05-02T23:01:04.192Z,16.30
2018-05-02T23:02:05.262Z,16.20
2018-05-02T23:03:06.478Z,16.20
2018-05-02T23:04:07.796Z,16.30
2018-05-02T23:05:09.547Z,16.20
2018-05-02T23:06:10.598Z,16.20
2018-05-02T23:07:11.656Z,16.20
2018-05-02T23:08:13.035Z,16.20
2018-05-02T23:09:14.605Z,16.30
2018-05-02T23:10:16.407Z,16.30
2018-05-02T23:11:18.458Z,16.20
2018-05-02T23:12:19.500Z,16.30
2018-05-02T23:13:20.564Z,16.30
2018-05-02T23:14:22.469Z,16.20
2018-05-02T23:15:23.562Z,16.20
2018-05-02T23:16:26.945Z,16.20
2018-05-02T23:17:29.096Z,16.20
2018-05-02T23:18:45.204Z,16.10
2018-05-02T23:19:50.895Z,16.30
2018-05-02T23:20:51.982Z,16.20
2018-05-02T23:21:53.039Z,16.20
2018-05-02T23:22:55.289Z,16.30
2018-05-02T23:23:56.595Z,16.20
2018-05-02T23:24:57.657Z,16.20
2018-05-02T23:26:00.058Z,16.30
2018-05-02T23:27:01.136Z,16.30
2018-05-02T23:28:02.196Z,16.20
2018-05-02T23:29:04.339Z,16.20
2018-05-02T23:30:05.411Z,16.20
2018-05-02T23:31:09.054Z,16.30
2018-05-02T23:32:10.176Z,16.20
2018-05-02T23:33:16.611Z,16.30
2018-05-02T23:34:25.432Z,16.30
2018-05-02T23:35:26.582Z,16.30
2018-05-02T23:36:27.639Z,16.30
2018-05-02T23:37:28.687Z,16.30
2018-05-02T23:38:29.746Z,16.30
2018-05-02T23:39:30.798Z,16.30
2018-05-02T23:40:31.858Z,16.20
2018-05-02T23:41:32.919Z,16.20
2018-05-02T23:42:34.015Z,16.30
2018-05-02T23:43:35.055Z,16.20
2018-05-02T23:44:36.124Z,16.20
2018-05-02T23:45:37.195Z,16.30
2018-05-02T23:46:38.252Z,16.30
2018-05-02T23:47:39.316Z,16.30
2018-05-02T23:48:40.476Z,16.20
2018-05-02T23:49:41.538Z,16.30
2018-05-02T23:50:42.613Z,16.30
2018-05-02T23:51:43.695Z,16.40
2018-05-02T23:52:44.756Z,16.20
2018-05-02T23:53:45.821Z,16.20
2018-05-02T23:54:46.930Z,16.30
2018-05-02T23:55:48.008Z,16.30
2018-05-02T23:56:49.075Z,16.20
2018-05-02T23:57:50.139Z,16.20
2018-05-02T23:58:51.240Z,16.20
2018-05-02T23:59:52.297Z,16.20
